Date,TemperatureHighF,TemperatureAvgF,TemperatureLowF,DewpointHighF,DewpointAvgF,DewpointLowF,HumidityHigh,HumidityAvg,HumidityLow,PressureMaxIn,PressureMinIn,WindSpeedMaxMPH,WindSpeedAvgMPH,GustSpeedMaxMPH,PrecipitationSumIn
2013-1-1,56,46,38,56,45,32,100,94,80,30.18,29.86,10,2,0,0.13
2013-1-2,44,36,30,32,30,27,88,77,57,30.28,30.18,6,1,0,0.00
2013-1-3,43,37,28,32,30,26,92,75,62,30.40,30.27,5,0,0,0.00
2013-1-4,41,37,33,39,36,31,100,98,69,30.46,30.32,2,0,0,0.21
2013-1-5,56,43,36,44,40,36,100,90,57,30.33,30.13,4,0,0,0.02
2013-1-6,58,42,32,38,32,28,99,73,35,30.34,30.22,7,1,13,0.01
2013-1-7,54,41,28,40,33,25,92,75,49,30.26,29.97,6,0,0,0.00
2013-1-8,52,48,45,52,48,40,100,98,78,29.97,29.79,5,0,0,1.18
2013-1-9,56,53,48,56,53,48,100,100,97,29.93,29.74,12,2,20,1.08
2013-1-10,64,51,42,50,45,42,100,82,52,29.95,29.87,17,2,19,0.01
2013-1-11,73,60,43,64,54,41,97,81,61,29.91,29.69,13,3,24,0.00
2013-1-12,72,64,45,67,59,34,99,84,57,29.81,29.53,11,3,17,0.00
2013-1-13,49,41,35,34,29,24,71,62,48,30.13,29.83,13,4,19,0.00
2013-1-14,48,38,30,30,26,22,73,63,48,30.19,30.03,12,2,12,0.00
2013-1-15,39,35,32,34,31,22,98,86,65,30.21,30.04,12,3,15,0.03
2013-1-16,50,38,25,25,21,16,79,54,26,30.29,30.12,13,2,17,0.00
2013-1-17,62,46,32,37,32,24,83,61,35,30.41,30.23,11,2,12,0.00
2013-1-18,64,46,30,38,33,28,91,64,31,30.44,30.22,9,1,12,0.00
2013-1-19,68,51,39,49,42,35,99,73,42,30.22,30.04,11,1,18,0.00
2013-1-20,74,55,39,50,42,36,90,67,28,30.16,29.98,7,1,0,0.00
2013-1-21,70,55,40,53,46,38,96,75,49,30.15,30.02,5,0,0,0.00
2013-1-22,70,54,41,52,46,38,93,74,48,30.21,30.10,13,1,13,0.00
2013-1-23,74,59,46,58,53,45,100,82,57,30.23,30.09,12,2,16,0.00
2013-1-24,80,66,54,62,58,52,99,79,40,30.13,29.99,10,2,12,0.01
2013-1-25,80,66,55,62,59,52,96,79,50,30.05,29.91,10,2,14,0.00
2013-1-26,63,55,49,58,52,45,99,91,82,30.10,29.97,3,0,0,0.00
2013-1-27,76,66,54,65,61,54,100,84,59,30.01,29.83,12,4,19,0.00
2013-1-28,74,70,67,67,65,64,96,86,71,29.91,29.74,16,4,20,0.00
2013-1-29,80,67,53,67,56,21,97,70,28,29.75,29.40,16,5,26,0.00
2013-1-30,55,48,36,29,20,14,58,34,21,30.15,29.70,22,6,29,0.00
2013-1-31,67,48,32,26,22,19,67,41,19,30.21,30.10,9,1,19,0.00
2013-2-1,69,53,38,43,34,25,73,48,29,30.28,30.09,14,2,16,0.00
2013-2-2,75,60,43,55,47,42,96,68,35,30.19,30.06,12,1,19,0.00
2013-2-6,72,72,71,59,59,59,66,64,63,29.79,29.78,6,4,0,0.00
2013-10-24,62,54,50,42,39,-100,70,62,43,30.16,30.10,1,0,0,0.00
2013-10-25,71,58,44,53,47,41,89,69,44,30.25,30.12,10,1,0,0.00
2013-10-26,65,61,59,56,55,55,87,83,74,30.13,30.09,11,2,0,0.00
2013-10-27,67,61,58,56,55,53,91,80,65,30.04,29.93,6,1,0,1.82
2013-10-28,74,65,59,61,58,55,92,78,58,29.99,29.87,13,2,0,0.00
2013-10-29,75,68,63,62,60,57,85,75,58,29.97,29.86,16,4,0,0.00
2013-10-30,71,69,65,65,-24,-100,92,81,74,29.92,29.71,11,2,0,0.07
2013-10-31,72,64,47,62,20,-100,91,59,19,29.83,29.68,17,2,0,0.27
2013-11-1,75,58,42,45,35,26,79,49,18,30.02,29.76,18,2,0,0.00
2013-11-2,65,53,41,39,30,-100,78,48,22,30.24,30.02,12,1,0,0.00
2013-11-3,62,47,34,45,34,29,90,64,31,30.17,29.93,12,1,0,0.00
2013-11-4,60,56,53,55,50,45,92,83,70,29.98,29.88,10,1,0,0.05
2013-11-5,69,63,57,58,57,55,92,81,68,29.93,29.80,10,1,0,0.00
2013-11-6,68,55,45,59,49,33,94,79,61,30.28,29.88,14,4,0,0.64
2013-11-7,56,46,34,39,32,24,87,62,31,30.41,30.28,10,1,0,0.00
2013-11-8,56,48,42,41,36,26,91,66,33,30.32,30.08,10,1,0,0.00
2013-11-9,59,54,47,50,4,-100,81,72,64,30.11,30.03,10,2,0,0.00
2013-11-10,60,56,51,51,-22,-100,93,75,69,30.22,30.08,5,1,0,0.00
2013-11-11,70,54,43,49,46,42,95,78,44,30.22,30.07,3,0,0,0.00
2013-11-12,52,45,35,48,36,17,93,74,46,30.59,30.18,16,3,0,0.00
2013-11-13,49,35,24,26,20,15,85,57,28,30.61,30.36,9,1,0,0.00
2013-11-14,55,41,25,39,28,18,91,63,28,30.36,29.96,13,2,0,0.00
2013-11-15,71,57,44,51,47,40,95,70,45,29.96,29.77,10,1,0,0.00
2013-11-16,71,64,56,61,12,-100,86,76,61,29.80,29.64,17,4,0,0.00
2013-11-17,79,67,57,61,32,-100,89,63,29,29.84,29.67,12,1,0,0.00
2013-11-18,67,58,47,54,18,-100,81,65,54,30.04,29.83,6,0,0,0.00
2013-11-19,64,54,43,46,41,34,89,64,35,30.08,29.91,10,1,0,0.00
2013-11-20,68,58,51,58,52,46,94,79,64,29.92,29.79,8,2,0,0.00
2013-11-21,70,64,60,62,60,58,95,87,74,29.97,29.82,11,2,0,0.05
2013-11-22,63,35,29,61,32,26,94,90,86,30.38,29.95,16,5,0,0.82
2013-11-23,35,32,30,32,29,27,93,90,86,30.45,30.36,14,4,0,0.01
2013-11-24,35,32,28,31,27,23,93,82,67,30.48,30.28,11,2,0,0.27
2013-11-25,32,29,28,29,27,26,93,92,90,30.31,30.16,5,0,0,0.29